createdAt,value
2022-08-22T00:00:47.092Z,6.69
2022-08-22T00:01:51.769Z,6.08
2022-08-22T00:02:42.671Z,3.81
2022-08-22T00:02:54.356Z,4.27
2022-08-22T00:03:03.867Z,5.50
2022-08-22T00:03:07.844Z,4.17
2022-08-22T00:03:17.593Z,7.42
2022-08-22T00:03:59.608Z,7.39
2022-08-22T00:05:01.867Z,7.07
2022-08-22T00:06:04.023Z,6.52
2022-08-22T00:07:05.876Z,6.63
2022-08-22T00:08:08.031Z,6.86
2022-08-22T00:09:09.885Z,7.25
2022-08-22T00:10:13.070Z,6.25
2022-08-22T00:11:16.753Z,5.90
2022-08-22T00:12:18.605Z,7.37
2022-08-22T00:13:20.453Z,6.69
2022-08-22T00:14:22.411Z,6.46
2022-08-22T00:15:42.170Z,6.23
2022-08-22T00:16:28.324Z,7.12
2022-08-22T00:17:30.190Z,6.84
2022-08-22T00:18:32.030Z,7.80
2022-08-22T00:19:33.982Z,7.56
2022-08-22T00:20:36.376Z,7.24
2022-08-22T00:21:38.219Z,6.08
2022-08-22T00:22:41.920Z,7.37
2022-08-22T00:23:43.776Z,7.71
2022-08-22T00:24:45.719Z,7.57
2022-08-22T00:25:47.679Z,8.49
2022-08-22T00:26:49.730Z,7.44
2022-08-22T00:27:51.681Z,8.01
2022-08-22T00:28:53.633Z,7.99
2022-08-22T00:29:55.481Z,8.01
2022-08-22T00:30:57.743Z,8.10
2022-08-22T00:31:59.695Z,7.54
2022-08-22T00:33:01.650Z,7.10
2022-08-22T00:34:03.601Z,8.31
2022-08-22T00:35:05.553Z,8.71
2022-08-22T00:36:08.429Z,7.33
2022-08-22T00:37:10.284Z,7.51
2022-08-22T00:38:12.433Z,8.20
2022-08-22T00:39:14.287Z,8.18
2022-08-22T00:40:17.070Z,6.35
2022-08-22T00:41:19.422Z,7.31
2022-08-22T00:42:29.393Z,6.87
2022-08-22T00:43:25.078Z,7.65
2022-08-22T00:44:27.015Z,7.22
2022-08-22T00:45:28.971Z,7.36
2022-08-22T00:46:31.844Z,6.92
2022-08-22T00:47:33.797Z,8.25
2022-08-22T00:48:35.747Z,7.59
2022-08-22T00:49:38.006Z,6.75
2022-08-22T00:50:39.961Z,7.85
2022-08-22T00:51:41.913Z,7.89
2022-08-22T00:52:45.094Z,7.57
2022-08-22T00:53:47.044Z,8.03
2022-08-22T00:54:48.996Z,7.88
2022-08-22T00:55:50.848Z,8.25
2022-08-22T00:56:53.005Z,7.49
2022-08-22T00:57:54.847Z,7.48
2022-08-22T00:58:56.707Z,7.18
2022-08-22T00:59:58.656Z,7.55
2022-08-22T01:01:00.750Z,7.45
2022-08-22T01:02:02.767Z,8.32
2022-08-22T01:03:04.924Z,8.46
2022-08-22T01:04:06.799Z,7.79
2022-08-22T01:05:08.726Z,7.41
2022-08-22T01:06:10.988Z,7.32
2022-08-22T01:07:12.943Z,8.65
2022-08-22T01:08:14.790Z,7.79
2022-08-22T01:09:16.744Z,8.45
2022-08-22T01:10:19.717Z,7.92
2022-08-22T01:11:21.568Z,7.51
2022-08-22T01:12:23.521Z,8.23
2022-08-22T01:13:25.377Z,8.31
2022-08-22T01:14:34.646Z,8.62
2022-08-22T01:15:31.016Z,7.98
2022-08-22T01:16:33.177Z,8.11
2022-08-22T01:17:35.128Z,8.14
2022-08-22T01:18:37.081Z,8.92
2022-08-22T01:19:39.028Z,7.81
2022-08-22T01:20:41.088Z,8.43
2022-08-22T01:21:43.244Z,8.70
2022-08-22T01:22:45.197Z,10.04
2022-08-22T01:23:47.150Z,8.73
2022-08-22T01:24:49.002Z,7.67
2022-08-22T01:25:51.361Z,7.18
2022-08-22T01:26:53.417Z,8.24
2022-08-22T01:27:55.426Z,7.98
2022-08-22T01:28:57.321Z,8.43
2022-08-22T01:29:59.272Z,8.37
2022-08-22T01:31:01.765Z,7.77
2022-08-22T01:32:03.700Z,7.77
2022-08-22T01:33:05.653Z,7.97
2022-08-22T01:34:12.748Z,9.97
2022-08-22T01:35:11.404Z,8.34
2022-08-22T01:36:14.685Z,8.70
2022-08-22T01:37:16.637Z,8.89
2022-08-22T01:38:18.591Z,8.17
2022-08-22T01:39:20.548Z,8.57
2022-08-22T01:40:22.830Z,8.39
2022-08-22T01:41:25.882Z,8.64
2022-08-22T01:42:28.242Z,8.21
2022-08-22T01:43:59.389Z,8.67
2022-08-22T01:44:33.888Z,8.85
2022-08-22T01:45:35.768Z,8.23
2022-08-22T01:46:37.855Z,8.77
2022-08-22T01:47:39.857Z,8.65
2022-08-22T01:48:41.802Z,9.16
2022-08-22T01:49:43.752Z,8.33
2022-08-22T01:50:45.915Z,7.95
2022-08-22T01:51:47.862Z,7.97
2022-08-22T01:52:49.816Z,7.91
2022-08-22T01:53:51.768Z,8.65
2022-08-22T01:54:53.723Z,8.09
2022-08-22T01:55:55.668Z,10.37
2022-08-22T01:56:57.832Z,8.87
2022-08-22T01:57:59.947Z,8.79
2022-08-22T01:59:02.860Z,8.23
2022-08-22T02:00:05.335Z,8.84
2022-08-22T02:01:07.320Z,8.98
2022-08-22T02:02:09.332Z,9.21
2022-08-22T02:03:11.496Z,9.49
2022-08-22T02:04:13.441Z,9.16
2022-08-22T02:05:15.394Z,8.57
2022-08-22T02:06:17.865Z,8.94
2022-08-22T02:07:19.810Z,8.68
2022-08-22T02:08:23.606Z,8.79
2022-08-22T02:09:25.557Z,8.57
2022-08-22T02:10:28.434Z,9.00
2022-08-22T02:11:30.391Z,9.60
2022-08-22T02:12:32.339Z,9.87
2022-08-22T02:13:34.293Z,8.19
2022-08-22T02:14:36.244Z,9.85
2022-08-22T02:15:38.192Z,9.39
2022-08-22T02:16:40.355Z,9.02
2022-08-22T02:17:42.306Z,9.13
2022-08-22T02:18:44.256Z,9.35
2022-08-22T02:19:46.216Z,9.07
2022-08-22T02:20:48.368Z,9.21
2022-08-22T02:21:50.319Z,9.27
2022-08-22T02:22:54.013Z,9.38
2022-08-22T02:23:56.151Z,9.81
2022-08-22T02:24:58.533Z,9.95
2022-08-22T02:26:00.485Z,9.46
2022-08-22T02:27:02.444Z,9.36
2022-08-22T02:28:04.310Z,8.46
2022-08-22T02:29:06.174Z,9.01
2022-08-22T02:30:08.504Z,10.29
2022-08-22T02:31:10.451Z,12.41
2022-08-22T02:32:14.252Z,10.26
2022-08-22T02:33:16.200Z,10.47
2022-08-22T02:34:18.159Z,10.72
2022-08-22T02:35:20.105Z,9.53
2022-08-22T02:36:22.569Z,10.20
2022-08-22T02:37:24.529Z,9.78
2022-08-22T02:38:26.476Z,10.82
2022-08-22T02:39:28.427Z,10.51
2022-08-22T02:40:31.003Z,10.22
2022-08-22T02:41:32.947Z,9.69
2022-08-22T02:42:35.414Z,9.88
2022-08-22T02:43:37.298Z,9.44
2022-08-22T02:44:39.215Z,10.25
2022-08-22T02:45:41.167Z,10.29
2022-08-22T02:46:43.330Z,10.21
2022-08-22T02:47:45.277Z,10.46
2022-08-22T02:48:47.228Z,9.86
2022-08-22T02:49:49.183Z,10.27
2022-08-22T02:50:51.339Z,9.99
2022-08-22T02:51:54.623Z,9.53
2022-08-22T02:52:56.573Z,9.67
2022-08-22T02:53:58.526Z,10.09
2022-08-22T02:55:00.396Z,10.29
2022-08-22T02:56:02.436Z,10.72
2022-08-22T02:57:04.383Z,9.45
2022-08-22T02:58:06.747Z,10.41
2022-08-22T02:59:08.702Z,10.17
2022-08-22T03:00:30.696Z,9.30
2022-08-22T03:01:14.878Z,10.96
2022-08-22T03:02:16.810Z,10.31
2022-08-22T03:03:18.872Z,9.89
2022-08-22T03:04:20.816Z,9.30
2022-08-22T03:05:22.975Z,9.23
2022-08-22T03:06:26.257Z,11.46
2022-08-22T03:07:28.218Z,9.89
2022-08-22T03:08:30.162Z,11.35
2022-08-22T03:09:32.028Z,11.54
2022-08-22T03:10:34.066Z,10.45
2022-08-22T03:11:36.021Z,8.93
2022-08-22T03:12:37.979Z,9.65
2022-08-22T03:13:39.925Z,9.33
2022-08-22T03:14:41.876Z,10.18
2022-08-22T03:15:49.341Z,9.94
2022-08-22T03:16:47.831Z,10.53
2022-08-22T03:17:49.783Z,9.85
2022-08-22T03:18:51.734Z,10.45
2022-08-22T03:19:53.698Z,10.38
2022-08-22T03:20:55.843Z,10.99
2022-08-22T03:21:57.798Z,11.34
2022-08-22T03:23:00.079Z,10.05
2022-08-22T03:24:02.006Z,10.04
2022-08-22T03:25:03.962Z,11.95
2022-08-22T03:26:07.692Z,10.62
2022-08-22T03:27:09.915Z,10.01
2022-08-22T03:28:11.868Z,10.69
2022-08-22T03:29:13.819Z,9.78
2022-08-22T03:30:15.983Z,9.66
2022-08-22T03:31:17.929Z,10.26
2022-08-22T03:32:19.882Z,9.41
2022-08-22T03:33:21.840Z,10.07
2022-08-22T03:34:23.788Z,9.72
2022-08-22T03:35:25.739Z,10.10
2022-08-22T03:36:28.208Z,10.06
2022-08-22T03:37:30.155Z,10.48
2022-08-22T03:38:32.107Z,9.74
2022-08-22T03:39:34.057Z,9.43
2022-08-22T03:40:36.219Z,9.71
2022-08-22T03:41:41.344Z,10.62
2022-08-22T03:42:46.724Z,10.68
2022-08-22T03:43:48.618Z,9.92
2022-08-22T03:44:50.468Z,10.79
2022-08-22T03:45:52.420Z,10.18
2022-08-22T03:46:54.489Z,9.69
2022-08-22T03:47:56.443Z,10.08
2022-08-22T03:48:58.380Z,10.01
2022-08-22T03:50:00.154Z,9.13
2022-08-22T03:51:02.181Z,8.79
2022-08-22T03:52:04.135Z,9.62
2022-08-22T03:53:06.087Z,9.45
2022-08-22T03:54:09.798Z,9.67
2022-08-22T03:55:11.733Z,10.30
2022-08-22T03:56:14.407Z,9.28
2022-08-22T03:57:16.260Z,8.63
2022-08-22T03:58:27.614Z,10.25
2022-08-22T03:59:21.904Z,10.27
2022-08-22T04:00:26.048Z,9.25
2022-08-22T04:01:28.059Z,10.11
2022-08-22T04:02:43.065Z,9.69
2022-08-22T04:03:33.808Z,9.96
2022-08-22T04:04:35.757Z,9.99
2022-08-22T04:05:37.814Z,9.74
2022-08-22T04:06:41.002Z,8.78
2022-08-22T04:07:43.049Z,9.20
2022-08-22T04:08:46.843Z,9.44
2022-08-22T04:09:49.312Z,8.90
2022-08-22T04:10:53.207Z,9.92
2022-08-22T04:11:55.059Z,9.32
2022-08-22T04:12:57.009Z,8.01
2022-08-22T04:13:58.861Z,8.90
2022-08-22T04:15:00.820Z,8.99
2022-08-22T04:16:02.867Z,8.65
2022-08-22T04:17:04.825Z,8.54
2022-08-22T04:18:06.776Z,9.07
2022-08-22T04:19:10.368Z,8.98
2022-08-22T04:20:12.828Z,8.49
2022-08-22T04:21:16.530Z,8.92
2022-08-22T04:22:18.373Z,8.03
2022-08-22T04:23:20.133Z,7.97
2022-08-22T04:24:22.890Z,8.47
2022-08-22T04:25:24.761Z,8.20
2022-08-22T04:26:26.793Z,8.41
2022-08-22T04:27:28.645Z,8.92
2022-08-22T04:28:30.597Z,8.72
2022-08-22T04:29:32.549Z,8.25
2022-08-22T04:30:34.604Z,9.13
2022-08-22T04:31:36.566Z,8.49
2022-08-22T04:32:38.513Z,8.74
2022-08-22T04:33:40.461Z,8.43
2022-08-22T04:34:42.424Z,8.26
2022-08-22T04:35:44.369Z,8.23
2022-08-22T04:36:46.525Z,7.65
2022-08-22T04:37:48.376Z,8.22
2022-08-22T04:38:50.329Z,7.86
2022-08-22T04:39:52.318Z,8.13
2022-08-22T04:40:54.540Z,8.38
2022-08-22T04:42:00.740Z,8.11
2022-08-22T04:43:00.185Z,7.74
2022-08-22T04:44:02.855Z,8.48
2022-08-22T04:45:04.824Z,7.42
2022-08-22T04:46:07.475Z,7.86
2022-08-22T04:47:09.432Z,8.29
2022-08-22T04:48:11.278Z,7.89
2022-08-22T04:49:13.230Z,8.19
2022-08-22T04:50:15.387Z,7.75
2022-08-22T04:51:17.360Z,7.90
2022-08-22T04:52:19.394Z,7.43
2022-08-22T04:53:21.354Z,8.73
2022-08-22T04:54:23.298Z,7.99
2022-08-22T04:55:25.252Z,6.52
2022-08-22T04:56:27.616Z,6.54
2022-08-22T04:57:29.574Z,8.21
2022-08-22T04:58:31.518Z,8.20
2022-08-22T04:59:33.586Z,7.32
2022-08-22T05:00:35.839Z,7.14
2022-08-22T05:01:37.748Z,7.30
2022-08-22T05:02:39.854Z,6.91
2022-08-22T05:03:44.824Z,7.35
2022-08-22T05:04:45.592Z,6.81
2022-08-22T05:05:47.540Z,7.86
2022-08-22T05:06:49.705Z,6.77
2022-08-22T05:07:51.652Z,8.10
2022-08-22T05:08:53.752Z,7.21
2022-08-22T05:09:56.175Z,6.71
2022-08-22T05:10:58.328Z,7.85
2022-08-22T05:12:00.235Z,7.35
2022-08-22T05:13:02.440Z,7.29
2022-08-22T05:14:04.389Z,6.89
2022-08-22T05:15:06.341Z,7.21
2022-08-22T05:16:10.960Z,6.96
2022-08-22T05:17:12.807Z,6.94
2022-08-22T05:18:16.500Z,6.94
2022-08-22T05:19:24.980Z,6.23
2022-08-22T05:20:22.760Z,7.01
2022-08-22T05:21:27.032Z,6.09
2022-08-22T05:22:28.714Z,5.59
2022-08-22T05:23:30.576Z,6.63
2022-08-22T05:24:32.515Z,7.05
2022-08-22T05:25:34.703Z,6.27
2022-08-22T05:26:38.572Z,5.96
2022-08-22T05:27:40.523Z,6.99
2022-08-22T05:28:42.478Z,6.89
2022-08-22T05:29:44.427Z,5.86
2022-08-22T05:30:46.388Z,6.25
2022-08-22T05:31:48.342Z,5.79
2022-08-22T05:32:50.307Z,6.57
2022-08-22T05:33:52.243Z,5.84
2022-08-22T05:34:54.193Z,8.09
2022-08-22T05:35:58.047Z,9.55
2022-08-22T05:37:00.046Z,6.48
2022-08-22T05:38:01.995Z,5.53
2022-08-22T05:39:03.948Z,6.35
2022-08-22T05:40:06.366Z,6.51
2022-08-22T05:41:08.364Z,6.88
2022-08-22T05:42:10.317Z,5.65
2022-08-22T05:43:12.181Z,6.69
2022-08-22T05:44:14.107Z,5.40
2022-08-22T05:45:15.986Z,6.41
2022-08-22T05:46:18.653Z,5.34
2022-08-22T05:47:20.645Z,6.86
2022-08-22T05:48:22.451Z,5.58
2022-08-22T05:49:24.398Z,5.21
2022-08-22T05:50:26.756Z,4.97
2022-08-22T05:51:28.717Z,5.36
2022-08-22T05:52:30.667Z,5.65
2022-08-22T05:53:33.845Z,6.07
2022-08-22T05:54:35.796Z,6.10
2022-08-22T05:55:37.752Z,5.68
2022-08-22T05:56:40.018Z,5.37
2022-08-22T05:57:41.976Z,4.81
2022-08-22T05:58:43.929Z,5.49
2022-08-22T05:59:45.881Z,5.63
2022-08-22T06:00:48.034Z,4.65
2022-08-22T06:01:50.160Z,4.93
2022-08-22T06:02:52.348Z,4.85
2022-08-22T06:03:54.302Z,5.34
2022-08-22T06:04:56.462Z,5.53
2022-08-22T06:05:59.544Z,5.48
2022-08-22T06:07:01.796Z,5.63
2022-08-22T06:08:03.752Z,5.29
2022-08-22T06:09:05.709Z,4.49
2022-08-22T06:10:08.167Z,4.97
2022-08-22T06:11:10.032Z,5.36
2022-08-22T06:12:21.633Z,5.28
2022-08-22T06:13:15.717Z,5.67
2022-08-22T06:14:19.390Z,4.54
2022-08-22T06:15:23.153Z,5.62
2022-08-22T06:16:25.944Z,4.53
2022-08-22T06:17:28.026Z,4.42
2022-08-22T06:18:29.933Z,5.21
2022-08-22T06:19:31.883Z,4.96
2022-08-22T06:20:34.041Z,5.49
2022-08-22T06:21:39.381Z,5.53
2022-08-22T06:22:39.787Z,4.78
2022-08-22T06:23:41.947Z,5.33
2022-08-22T06:24:43.898Z,5.37
2022-08-22T06:25:45.848Z,5.37
2022-08-22T06:26:48.961Z,4.07
2022-08-22T06:27:51.094Z,4.79
2022-08-22T06:28:55.300Z,4.28
2022-08-22T06:29:56.835Z,4.48
2022-08-22T06:30:58.990Z,4.61
2022-08-22T06:32:00.956Z,4.73
2022-08-22T06:33:02.819Z,4.20
2022-08-22T06:34:05.259Z,4.61
2022-08-22T06:35:07.223Z,4.60
2022-08-22T06:36:09.983Z,4.79
2022-08-22T06:37:11.937Z,4.32
2022-08-22T06:38:13.902Z,4.87
2022-08-22T06:39:15.840Z,4.16
2022-08-22T06:40:18.385Z,4.51
2022-08-22T06:41:20.567Z,5.49
2022-08-22T06:42:22.622Z,4.67
2022-08-22T06:43:24.672Z,4.25
2022-08-22T06:44:26.625Z,4.17
2022-08-22T06:45:28.580Z,4.23
2022-08-22T06:46:30.919Z,3.87
2022-08-22T06:47:32.895Z,4.87
2022-08-22T06:48:34.845Z,4.97
2022-08-22T06:49:36.801Z,4.91
2022-08-22T06:50:38.963Z,4.01
2022-08-22T06:51:40.905Z,4.27
2022-08-22T06:52:42.869Z,4.44
2022-08-22T06:53:49.835Z,4.85
2022-08-22T06:54:48.617Z,4.42
2022-08-22T06:55:50.564Z,3.91
2022-08-22T06:56:53.040Z,5.35
2022-08-22T06:57:55.046Z,4.33
2022-08-22T06:58:56.974Z,4.13
2022-08-22T06:59:59.005Z,4.19
2022-08-22T07:01:11.246Z,3.57
2022-08-22T07:02:05.987Z,4.15
2022-08-22T07:03:07.927Z,4.46
2022-08-22T07:04:09.878Z,3.44
2022-08-22T07:05:11.821Z,4.61
2022-08-22T07:06:15.625Z,3.91
2022-08-22T07:07:17.570Z,4.45
2022-08-22T07:08:19.519Z,7.19
2022-08-22T07:09:21.476Z,4.90
2022-08-22T07:10:23.745Z,4.79
2022-08-22T07:11:26.027Z,4.10
2022-08-22T07:12:28.149Z,4.17
2022-08-22T07:13:30.114Z,4.43
2022-08-22T07:14:32.055Z,4.66
2022-08-22T07:15:34.014Z,4.19
2022-08-22T07:16:36.174Z,3.99
2022-08-22T07:17:40.663Z,4.52
2022-08-22T07:18:41.912Z,3.89
2022-08-22T07:19:43.865Z,3.76
2022-08-22T07:20:46.737Z,4.28
2022-08-22T07:21:48.800Z,4.57
2022-08-22T07:22:54.028Z,4.11
2022-08-22T07:23:55.573Z,4.65
2022-08-22T07:24:57.509Z,3.43
2022-08-22T07:25:59.460Z,4.06
2022-08-22T07:27:01.530Z,3.87
2022-08-22T07:28:05.401Z,3.97
2022-08-22T07:29:11.528Z,3.86
2022-08-22T07:30:13.031Z,3.70
2022-08-22T07:31:15.164Z,3.86
2022-08-22T07:32:18.856Z,4.51
2022-08-22T07:33:26.253Z,4.17
2022-08-22T07:35:53.140Z,3.77
2022-08-22T07:36:49.812Z,3.82
2022-08-22T07:37:51.761Z,4.49
2022-08-22T07:38:53.626Z,4.05
2022-08-22T07:39:55.519Z,4.62
2022-08-22T07:40:57.618Z,3.85
2022-08-22T07:41:59.696Z,3.47
2022-08-22T07:43:01.561Z,3.64
2022-08-22T07:44:03.408Z,3.76
2022-08-22T07:45:05.255Z,3.75
2022-08-22T07:46:07.825Z,4.34
2022-08-22T07:47:10.124Z,4.09
2022-08-22T07:48:12.183Z,3.78
2022-08-22T07:49:14.067Z,3.65
2022-08-22T07:50:17.555Z,3.71
2022-08-22T07:51:19.413Z,4.44
2022-08-22T07:52:21.359Z,4.04
2022-08-22T07:53:23.505Z,3.67
2022-08-22T07:54:27.226Z,2.93
2022-08-22T07:55:29.165Z,3.79
2022-08-22T07:56:31.522Z,3.20
2022-08-22T07:57:33.466Z,3.99
2022-08-22T07:58:35.435Z,3.71
2022-08-22T07:59:37.275Z,3.53
2022-08-22T08:00:39.633Z,3.91
2022-08-22T08:01:41.516Z,3.70
2022-08-22T08:02:43.465Z,3.45
2022-08-22T08:03:45.311Z,3.34
2022-08-22T08:04:47.227Z,2.73
2022-08-22T08:05:49.414Z,4.24
2022-08-22T08:06:51.453Z,3.67
2022-08-22T08:07:53.436Z,4.33
2022-08-22T08:08:55.466Z,3.74
2022-08-22T08:09:57.428Z,3.66
2022-08-22T08:10:59.680Z,3.51
2022-08-22T08:12:01.633Z,3.89
2022-08-22T08:13:03.589Z,3.56
2022-08-22T08:14:05.543Z,3.81
2022-08-22T08:15:07.489Z,4.81
2022-08-22T08:16:10.267Z,4.87
2022-08-22T08:17:12.217Z,3.50
2022-08-22T08:18:14.173Z,3.10
2022-08-22T08:19:16.123Z,3.75
2022-08-22T08:20:19.402Z,3.84
2022-08-22T08:21:23.105Z,3.01
2022-08-22T08:22:25.048Z,3.25
2022-08-22T08:23:27.110Z,4.81
2022-08-22T08:24:29.056Z,4.44
2022-08-22T08:25:32.866Z,3.98
2022-08-22T08:26:35.521Z,4.06
2022-08-22T08:27:37.477Z,3.74
2022-08-22T08:28:39.423Z,3.12
2022-08-22T08:29:41.318Z,3.60
2022-08-22T08:30:43.324Z,4.39
2022-08-22T08:31:45.287Z,3.64
2022-08-22T08:32:47.232Z,3.64
2022-08-22T08:33:49.185Z,3.34
2022-08-22T08:34:51.182Z,3.83
2022-08-22T08:36:02.504Z,3.89
2022-08-22T08:36:57.298Z,4.10
2022-08-22T08:37:59.438Z,3.72
2022-08-22T08:39:01.528Z,3.88
2022-08-22T08:40:03.623Z,3.84
2022-08-22T08:41:05.622Z,4.04
2022-08-22T08:42:07.773Z,4.26
2022-08-22T08:43:10.640Z,3.50
2022-08-22T08:44:13.010Z,3.76
2022-08-22T08:45:14.969Z,3.88
2022-08-22T08:46:17.882Z,4.41
2022-08-22T08:47:19.791Z,4.30
2022-08-22T08:48:23.390Z,4.64
2022-08-22T08:49:25.339Z,3.63
2022-08-22T08:50:28.210Z,3.83
2022-08-22T08:51:30.573Z,4.03
2022-08-22T08:52:32.525Z,3.72
2022-08-22T08:53:34.475Z,3.87
2022-08-22T08:54:36.441Z,3.91
2022-08-22T08:55:38.384Z,3.71
2022-08-22T08:56:42.800Z,3.81
2022-08-22T08:57:44.955Z,4.52
2022-08-22T08:58:46.900Z,4.29
2022-08-22T08:59:50.700Z,3.58
2022-08-22T09:00:52.892Z,3.76
2022-08-22T09:01:55.323Z,3.17
2022-08-22T09:02:59.530Z,3.81
2022-08-22T09:04:01.475Z,3.46
2022-08-22T09:05:03.526Z,3.45
2022-08-22T09:06:07.638Z,3.51
2022-08-22T09:07:10.016Z,4.09
2022-08-22T09:08:11.999Z,4.27
2022-08-22T09:09:13.906Z,4.50
2022-08-22T09:10:18.827Z,3.69
2022-08-22T09:11:28.289Z,3.74
2022-08-22T09:12:24.784Z,3.91
2022-08-22T09:13:26.638Z,4.15
2022-08-22T09:14:28.519Z,3.73
2022-08-22T09:15:30.507Z,3.69
2022-08-22T09:16:34.299Z,3.81
2022-08-22T09:17:37.492Z,3.16
2022-08-22T09:18:39.358Z,3.79
2022-08-22T09:19:41.225Z,4.50
2022-08-22T09:20:43.263Z,4.03
2022-08-22T09:21:45.147Z,3.90
2022-08-22T09:22:50.520Z,3.87
2022-08-22T09:23:53.277Z,3.84
2022-08-22T09:24:54.658Z,3.22
2022-08-22T09:25:56.877Z,2.96
2022-08-22T09:26:59.356Z,3.30
2022-08-22T09:28:02.648Z,2.99
2022-08-22T09:29:04.521Z,3.42
2022-08-22T09:30:07.521Z,3.44
2022-08-22T09:31:18.708Z,3.70
2022-08-22T09:32:14.985Z,3.60
2022-08-22T09:33:18.678Z,3.36
2022-08-22T09:34:23.885Z,3.37
2022-08-22T09:35:24.421Z,3.12
2022-08-22T09:36:26.840Z,3.53
2022-08-22T09:37:28.753Z,3.30
2022-08-22T09:38:30.793Z,3.07
2022-08-22T09:39:32.694Z,4.10
2022-08-22T09:40:36.543Z,5.05
2022-08-22T09:41:39.426Z,3.41
2022-08-22T09:42:44.808Z,5.20
2022-08-22T09:43:48.633Z,4.39
2022-08-22T09:44:49.218Z,3.97
2022-08-22T09:45:51.119Z,3.65
2022-08-22T09:46:53.287Z,3.09
2022-08-22T09:47:57.200Z,4.08
2022-08-22T09:48:59.030Z,3.16
2022-08-22T09:50:00.904Z,3.75
2022-08-22T09:51:28.811Z,3.01
2022-08-22T09:52:15.246Z,3.06
2022-08-22T09:53:10.420Z,4.08
2022-08-22T09:54:12.374Z,4.45
2022-08-22T09:55:16.233Z,3.69
2022-08-22T09:56:18.272Z,3.38
2022-08-22T09:57:22.476Z,3.69
2022-08-22T09:58:24.688Z,3.32
2022-08-22T09:59:28.384Z,3.14
2022-08-22T10:00:30.758Z,4.32
2022-08-22T10:01:33.450Z,3.80
2022-08-22T10:02:36.113Z,11.00
2022-08-22T10:03:38.041Z,12.23
2022-08-22T10:04:40.087Z,6.64
2022-08-22T10:05:44.941Z,4.74
2022-08-22T10:06:47.193Z,3.52
2022-08-22T10:07:51.486Z,6.74
2022-08-22T10:08:54.767Z,6.22
2022-08-22T10:09:57.526Z,7.41
2022-08-22T10:11:01.737Z,6.89
2022-08-22T10:12:03.691Z,4.49
2022-08-22T10:13:10.565Z,3.68
2022-08-22T10:14:09.434Z,3.17
2022-08-22T10:15:11.381Z,10.64
2022-08-22T10:16:13.747Z,7.97
2022-08-22T10:17:15.703Z,14.55
2022-08-22T10:18:19.516Z,11.45
2022-08-22T10:19:21.858Z,11.83
2022-08-22T10:20:27.759Z,5.85
2022-08-22T10:21:29.961Z,12.74
2022-08-22T10:22:32.107Z,12.57
2022-08-22T10:23:34.168Z,7.38
2022-08-22T10:24:43.750Z,13.97
2022-08-22T10:25:42.226Z,19.65
2022-08-22T10:26:44.527Z,10.21
2022-08-22T10:27:46.376Z,9.22
2022-08-22T10:28:48.333Z,6.51
2022-08-22T10:29:50.898Z,13.73
2022-08-22T10:30:52.858Z,9.73
2022-08-22T10:31:58.705Z,11.45
2022-08-22T10:32:58.652Z,23.98
2022-08-22T10:34:00.759Z,21.24
2022-08-22T10:35:03.136Z,8.35
2022-08-22T10:36:07.115Z,10.48
2022-08-22T10:37:10.929Z,9.93
2022-08-22T10:38:12.777Z,4.10
2022-08-22T10:39:14.711Z,4.85
2022-08-22T10:40:19.457Z,6.79
2022-08-22T10:41:22.615Z,5.28
2022-08-22T10:42:24.561Z,10.75
2022-08-22T10:43:28.955Z,13.33
2022-08-22T10:44:31.236Z,11.54
2022-08-22T10:45:36.048Z,8.06
2022-08-22T10:46:37.231Z,4.79
2022-08-22T10:47:40.812Z,5.51
2022-08-22T10:48:43.073Z,4.46
2022-08-22T10:49:45.040Z,3.90
2022-08-22T10:50:47.469Z,4.10
2022-08-22T10:51:49.327Z,3.76
2022-08-22T10:52:51.167Z,3.95
2022-08-22T10:53:53.030Z,4.04
2022-08-22T10:54:56.743Z,3.61
2022-08-22T10:55:58.611Z,3.56
2022-08-22T10:57:00.740Z,3.77
2022-08-22T10:58:02.807Z,4.39
2022-08-22T10:59:05.775Z,4.11
2022-08-22T11:00:08.181Z,4.57
2022-08-22T11:01:38.594Z,4.70
2022-08-22T11:02:13.789Z,4.22
2022-08-22T11:03:21.292Z,4.47
2022-08-22T11:04:19.396Z,4.27
2022-08-22T11:05:23.160Z,5.24
2022-08-22T11:06:26.675Z,5.12
2022-08-22T11:07:28.506Z,5.21
2022-08-22T11:08:30.335Z,5.06
2022-08-22T11:09:36.274Z,4.64
2022-08-22T11:10:37.861Z,5.62
2022-08-22T11:11:39.714Z,5.39
2022-08-22T11:12:43.895Z,5.03
2022-08-22T11:13:46.504Z,4.82
2022-08-22T11:14:50.290Z,4.31
2022-08-22T11:15:52.234Z,5.12
2022-08-22T11:16:55.081Z,5.08
2022-08-22T11:17:57.466Z,5.16
2022-08-22T11:19:02.950Z,5.01
2022-08-22T11:20:03.327Z,4.49
2022-08-22T11:21:07.345Z,4.13
2022-08-22T11:22:10.033Z,4.48
2022-08-22T11:23:12.669Z,3.91
2022-08-22T11:24:17.293Z,4.63
2022-08-22T11:25:26.900Z,3.62
2022-08-22T11:26:30.120Z,4.34
2022-08-22T11:27:37.691Z,3.95
2022-08-22T11:28:29.831Z,3.72
2022-08-22T11:29:33.182Z,4.46
2022-08-22T11:30:36.419Z,4.08
2022-08-22T11:31:40.070Z,4.43
2022-08-22T11:32:44.059Z,3.94
2022-08-22T11:33:47.038Z,3.66
2022-08-22T11:34:49.606Z,4.00
2022-08-22T11:35:52.223Z,3.20
2022-08-22T11:36:54.248Z,3.27
2022-08-22T11:37:56.526Z,3.78
2022-08-22T11:38:58.582Z,4.01
2022-08-22T11:40:02.475Z,3.78
2022-08-22T11:41:04.391Z,3.40
2022-08-22T11:42:07.597Z,3.36
2022-08-22T11:43:17.962Z,3.20
2022-08-22T11:44:13.126Z,3.16
2022-08-22T11:45:16.400Z,3.23
2022-08-22T11:46:20.030Z,3.19
2022-08-22T11:47:26.561Z,3.40
2022-08-22T11:48:25.842Z,3.34
2022-08-22T11:49:27.698Z,2.78
2022-08-22T11:50:31.997Z,2.51
2022-08-22T11:51:35.688Z,3.30
2022-08-22T11:52:37.774Z,2.55
2022-08-22T11:53:39.653Z,3.05
2022-08-22T11:54:42.034Z,3.20
2022-08-22T11:55:44.059Z,3.08
2022-08-22T11:56:46.214Z,2.81
2022-08-22T11:57:49.267Z,2.85
2022-08-22T11:58:51.194Z,3.17
2022-08-22T11:59:53.250Z,3.19
2022-08-22T12:00:55.837Z,2.95
2022-08-22T12:01:57.822Z,3.00
2022-08-22T12:03:01.183Z,2.54
2022-08-22T12:04:03.622Z,2.58
2022-08-22T12:05:05.583Z,3.19
2022-08-22T12:06:07.868Z,2.89
2022-08-22T12:07:09.782Z,2.69
2022-08-22T12:08:11.747Z,3.36
2022-08-22T12:09:13.689Z,3.75
2022-08-22T12:10:16.559Z,3.97
2022-08-22T12:11:18.431Z,3.67
2022-08-22T12:12:20.474Z,2.96
2022-08-22T12:13:34.751Z,2.99
2022-08-22T12:14:27.431Z,3.31
2022-08-22T12:15:30.634Z,3.38
2022-08-22T12:16:34.778Z,3.55
2022-08-22T12:17:55.470Z,2.84
2022-08-22T12:18:40.493Z,3.40
2022-08-22T12:19:59.078Z,3.36
2022-08-22T12:20:46.640Z,2.98
2022-08-22T12:21:49.735Z,2.92
2022-08-22T12:22:51.671Z,2.99
2022-08-22T12:23:53.656Z,2.95
2022-08-22T12:24:57.781Z,3.64
2022-08-22T12:25:59.271Z,3.35
2022-08-22T12:27:01.838Z,3.84
2022-08-22T12:29:33.454Z,3.74
2022-08-22T12:30:30.726Z,3.21
2022-08-22T12:31:33.210Z,3.42
2022-08-22T12:32:35.150Z,2.90
2022-08-22T12:33:37.510Z,3.91
2022-08-22T12:34:39.466Z,2.89
2022-08-22T12:35:43.155Z,3.10
2022-08-22T12:36:45.639Z,3.09
2022-08-22T12:37:52.680Z,3.97
2022-08-22T12:38:53.016Z,2.96
2022-08-22T12:39:55.010Z,3.01
2022-08-22T12:40:57.442Z,2.73
2022-08-22T12:42:00.240Z,3.65
2022-08-22T12:43:04.001Z,2.80
2022-08-22T12:44:07.765Z,3.25
2022-08-22T12:45:11.602Z,2.72
2022-08-22T12:46:14.684Z,2.91
2022-08-22T12:47:17.320Z,2.53
2022-08-22T12:48:19.519Z,3.13
2022-08-22T12:49:21.859Z,3.19
2022-08-22T12:50:24.037Z,3.23
2022-08-22T12:51:25.966Z,2.89
2022-08-22T12:52:29.762Z,2.84
2022-08-22T12:53:31.717Z,3.15
2022-08-22T12:54:33.673Z,2.87
2022-08-22T12:55:35.628Z,2.99
2022-08-22T12:56:37.882Z,2.87
2022-08-22T12:57:41.677Z,2.79
2022-08-22T12:58:45.067Z,3.89
2022-08-22T12:59:48.863Z,3.51
2022-08-22T13:00:52.537Z,2.90
2022-08-22T13:01:55.734Z,2.57
2022-08-22T13:02:58.070Z,2.68
2022-08-22T13:04:00.250Z,2.91
2022-08-22T13:05:02.203Z,2.80
2022-08-22T13:06:04.367Z,2.72
2022-08-22T13:07:08.156Z,2.46
2022-08-22T13:08:10.121Z,2.67
2022-08-22T13:09:12.070Z,3.01
2022-08-22T13:10:17.421Z,3.29
2022-08-22T13:11:23.225Z,3.26
2022-08-22T13:12:24.511Z,3.19
2022-08-22T13:13:31.684Z,2.70
2022-08-22T13:14:32.372Z,2.86
2022-08-22T13:15:34.357Z,2.55
2022-08-22T13:16:38.466Z,2.69
2022-08-22T13:17:42.328Z,2.71
2022-08-22T13:18:45.198Z,3.01
2022-08-22T13:19:47.251Z,3.25
2022-08-22T13:20:49.350Z,2.69
2022-08-22T13:21:52.557Z,3.70
2022-08-22T13:22:54.595Z,2.71
2022-08-22T13:23:57.580Z,5.70
2022-08-22T13:25:01.317Z,4.79
2022-08-22T13:26:07.566Z,3.49
2022-08-22T13:27:09.681Z,2.62
2022-08-22T13:28:12.914Z,3.59
2022-08-22T13:29:25.764Z,3.33
2022-08-22T13:30:19.855Z,3.10
2022-08-22T13:31:21.795Z,3.27
2022-08-22T13:32:23.807Z,2.64
2022-08-22T13:33:27.745Z,2.82
2022-08-22T13:34:30.158Z,2.94
2022-08-22T13:35:32.133Z,2.69
2022-08-22T13:36:36.217Z,2.75
2022-08-22T13:37:38.177Z,2.67
2022-08-22T13:38:46.461Z,2.61
2022-08-22T13:39:44.560Z,2.48
2022-08-22T13:40:47.705Z,3.25
2022-08-22T13:41:50.173Z,2.52
2022-08-22T13:42:54.083Z,2.82
2022-08-22T13:43:55.921Z,2.36
2022-08-22T13:44:57.819Z,2.66
2022-08-22T13:46:02.120Z,2.74
2022-08-22T13:47:13.970Z,2.31
2022-08-22T13:48:08.837Z,2.37